sensor_id;sensor_type;location;lat;lon;timestamp;P1;durP1;ratioP1;P2;durP2;ratioP2
5014;SDS011;2526;51.060;4.228;2022-11-20T00:00:41;26.25;;;13.40;;
5014;SDS011;2526;51.060;4.228;2022-11-20T00:03:06;25.10;;;13.18;;
5014;SDS011;2526;51.060;4.228;2022-11-20T00:05:32;24.48;;;13.75;;
5014;SDS011;2526;51.060;4.228;2022-11-20T00:07:58;26.95;;;14.13;;
5014;SDS011;2526;51.060;4.228;2022-11-20T00:10:23;28.30;;;14.52;;
5014;SDS011;2526;51.060;4.228;2022-11-20T00:12:49;25.70;;;15.63;;
5014;SDS011;2526;51.060;4.228;2022-11-20T00:15:14;25.83;;;14.80;;
5014;SDS011;2526;51.060;4.228;2022-11-20T00:17:40;21.42;;;13.23;;
5014;SDS011;2526;51.060;4.228;2022-11-20T00:20:05;24.58;;;14.55;;
5014;SDS011;2526;51.060;4.228;2022-11-20T00:22:31;25.55;;;15.43;;
5014;SDS011;2526;51.060;4.228;2022-11-20T00:24:56;24.88;;;14.18;;
5014;SDS011;2526;51.060;4.228;2022-11-20T00:27:23;24.05;;;14.70;;
5014;SDS011;2526;51.060;4.228;2022-11-20T00:29:48;25.42;;;16.60;;
5014;SDS011;2526;51.060;4.228;2022-11-20T00:32:13;25.88;;;17.80;;
5014;SDS011;2526;51.060;4.228;2022-11-20T00:34:39;27.02;;;13.98;;
5014;SDS011;2526;51.060;4.228;2022-11-20T00:37:04;30.35;;;15.43;;
5014;SDS011;2526;51.060;4.228;2022-11-20T00:39:30;28.25;;;14.90;;
5014;SDS011;2526;51.060;4.228;2022-11-20T00:41:55;25.25;;;14.43;;
5014;SDS011;2526;51.060;4.228;2022-11-20T00:44:20;30.35;;;18.50;;
5014;SDS011;2526;51.060;4.228;2022-11-20T00:46:46;27.40;;;17.10;;
5014;SDS011;2526;51.060;4.228;2022-11-20T00:49:11;20.95;;;15.50;;
5014;SDS011;2526;51.060;4.228;2022-11-20T00:51:37;24.52;;;14.25;;
5014;SDS011;2526;51.060;4.228;2022-11-20T00:54:02;25.55;;;15.85;;
5014;SDS011;2526;51.060;4.228;2022-11-20T00:56:28;29.85;;;15.15;;
5014;SDS011;2526;51.060;4.228;2022-11-20T00:58:53;23.77;;;15.10;;
5014;SDS011;2526;51.060;4.228;2022-11-20T01:01:23;23.85;;;15.30;;
5014;SDS011;2526;51.060;4.228;2022-11-20T01:03:50;22.38;;;12.82;;
5014;SDS011;2526;51.060;4.228;2022-11-20T01:06:17;27.85;;;15.23;;
5014;SDS011;2526;51.060;4.228;2022-11-20T01:08:43;31.45;;;16.77;;
5014;SDS011;2526;51.060;4.228;2022-11-20T01:11:12;27.52;;;16.13;;
5014;SDS011;2526;51.060;4.228;2022-11-20T01:13:38;31.77;;;13.10;;
5014;SDS011;2526;51.060;4.228;2022-11-20T01:18:29;28.77;;;16.23;;
5014;SDS011;2526;51.060;4.228;2022-11-20T01:20:55;27.30;;;15.48;;
5014;SDS011;2526;51.060;4.228;2022-11-20T01:23:20;22.23;;;11.82;;
5014;SDS011;2526;51.060;4.228;2022-11-20T01:25:46;23.00;;;15.10;;
5014;SDS011;2526;51.060;4.228;2022-11-20T01:28:11;24.98;;;14.43;;
5014;SDS011;2526;51.060;4.228;2022-11-20T01:30:36;21.10;;;14.00;;
5014;SDS011;2526;51.060;4.228;2022-11-20T01:33:02;31.25;;;14.68;;
5014;SDS011;2526;51.060;4.228;2022-11-20T01:35:27;30.85;;;15.38;;
5014;SDS011;2526;51.060;4.228;2022-11-20T01:37:53;23.02;;;14.40;;
5014;SDS011;2526;51.060;4.228;2022-11-20T01:40:18;23.02;;;13.35;;
5014;SDS011;2526;51.060;4.228;2022-11-20T01:42:47;21.90;;;14.48;;
5014;SDS011;2526;51.060;4.228;2022-11-20T01:48:19;26.27;;;13.85;;
5014;SDS011;2526;51.060;4.228;2022-11-20T01:50:46;25.65;;;16.15;;
5014;SDS011;2526;51.060;4.228;2022-11-20T01:53:13;32.63;;;14.35;;
5014;SDS011;2526;51.060;4.228;2022-11-20T01:55:45;24.73;;;13.70;;
5014;SDS011;2526;51.060;4.228;2022-11-20T01:58:12;28.27;;;16.58;;
5014;SDS011;2526;51.060;4.228;2022-11-20T02:00:38;28.33;;;15.55;;
5014;SDS011;2526;51.060;4.228;2022-11-20T02:03:03;22.75;;;15.40;;
5014;SDS011;2526;51.060;4.228;2022-11-20T02:05:38;20.30;;;12.75;;
5014;SDS011;2526;51.060;4.228;2022-11-20T02:08:05;23.45;;;13.65;;
5014;SDS011;2526;51.060;4.228;2022-11-20T02:10:31;18.52;;;12.45;;
5014;SDS011;2526;51.060;4.228;2022-11-20T02:12:57;26.30;;;16.90;;
5014;SDS011;2526;51.060;4.228;2022-11-20T02:15:41;23.30;;;14.57;;
5014;SDS011;2526;51.060;4.228;2022-11-20T02:18:07;22.80;;;12.98;;
5014;SDS011;2526;51.060;4.228;2022-11-20T02:20:33;28.75;;;15.57;;
5014;SDS011;2526;51.060;4.228;2022-11-20T02:23:07;22.88;;;13.85;;
5014;SDS011;2526;51.060;4.228;2022-11-20T02:25:34;22.38;;;13.85;;
5014;SDS011;2526;51.060;4.228;2022-11-20T02:28:00;23.38;;;14.88;;
5014;SDS011;2526;51.060;4.228;2022-11-20T02:30:26;26.30;;;15.25;;
5014;SDS011;2526;51.060;4.228;2022-11-20T02:32:51;21.77;;;13.10;;
5014;SDS011;2526;51.060;4.228;2022-11-20T02:37:49;29.25;;;16.58;;
5014;SDS011;2526;51.060;4.228;2022-11-20T02:40:16;16.52;;;13.13;;
5014;SDS011;2526;51.060;4.228;2022-11-20T02:42:41;22.75;;;13.52;;
5014;SDS011;2526;51.060;4.228;2022-11-20T02:45:07;25.30;;;15.30;;
5014;SDS011;2526;51.060;4.228;2022-11-20T02:47:32;29.05;;;15.45;;
5014;SDS011;2526;51.060;4.228;2022-11-20T02:49:58;28.25;;;16.63;;
5014;SDS011;2526;51.060;4.228;2022-11-20T02:52:24;23.40;;;16.88;;
5014;SDS011;2526;51.060;4.228;2022-11-20T02:54:49;19.80;;;14.82;;
5014;SDS011;2526;51.060;4.228;2022-11-20T02:57:15;27.10;;;16.63;;
5014;SDS011;2526;51.060;4.228;2022-11-20T02:59:40;23.90;;;17.05;;
5014;SDS011;2526;51.060;4.228;2022-11-20T03:02:06;27.85;;;17.48;;
5014;SDS011;2526;51.060;4.228;2022-11-20T03:04:31;34.50;;;19.08;;
5014;SDS011;2526;51.060;4.228;2022-11-20T03:06:57;31.35;;;19.17;;
5014;SDS011;2526;51.060;4.228;2022-11-20T03:09:22;29.48;;;20.27;;
5014;SDS011;2526;51.060;4.228;2022-11-20T03:11:48;29.50;;;18.98;;
5014;SDS011;2526;51.060;4.228;2022-11-20T03:14:13;33.17;;;20.33;;
5014;SDS011;2526;51.060;4.228;2022-11-20T03:16:39;31.48;;;19.95;;
5014;SDS011;2526;51.060;4.228;2022-11-20T03:19:04;34.00;;;19.08;;
5014;SDS011;2526;51.060;4.228;2022-11-20T03:21:30;41.03;;;21.00;;
5014;SDS011;2526;51.060;4.228;2022-11-20T03:23:55;28.88;;;19.80;;
5014;SDS011;2526;51.060;4.228;2022-11-20T03:26:22;31.83;;;19.80;;
5014;SDS011;2526;51.060;4.228;2022-11-20T03:28:49;28.30;;;19.25;;
5014;SDS011;2526;51.060;4.228;2022-11-20T03:31:15;37.67;;;20.65;;
5014;SDS011;2526;51.060;4.228;2022-11-20T03:33:41;41.42;;;21.77;;
5014;SDS011;2526;51.060;4.228;2022-11-20T03:36:11;27.35;;;17.13;;
5014;SDS011;2526;51.060;4.228;2022-11-20T03:38:37;37.22;;;19.05;;
5014;SDS011;2526;51.060;4.228;2022-11-20T03:41:04;30.90;;;18.75;;
5014;SDS011;2526;51.060;4.228;2022-11-20T03:43:30;36.53;;;18.15;;
5014;SDS011;2526;51.060;4.228;2022-11-20T03:45:55;30.05;;;20.55;;
5014;SDS011;2526;51.060;4.228;2022-11-20T03:48:21;27.42;;;18.55;;
5014;SDS011;2526;51.060;4.228;2022-11-20T03:50:46;31.38;;;17.58;;
5014;SDS011;2526;51.060;4.228;2022-11-20T03:53:13;35.83;;;19.70;;
5014;SDS011;2526;51.060;4.228;2022-11-20T03:55:38;35.50;;;20.55;;
5014;SDS011;2526;51.060;4.228;2022-11-20T03:58:04;32.67;;;19.27;;
5014;SDS011;2526;51.060;4.228;2022-11-20T04:00:29;27.75;;;18.55;;
5014;SDS011;2526;51.060;4.228;2022-11-20T04:02:57;24.13;;;15.55;;
5014;SDS011;2526;51.060;4.228;2022-11-20T04:05:23;29.70;;;17.52;;
5014;SDS011;2526;51.060;4.228;2022-11-20T04:07:48;27.33;;;17.33;;
5014;SDS011;2526;51.060;4.228;2022-11-20T04:10:13;28.35;;;15.32;;
5014;SDS011;2526;51.060;4.228;2022-11-20T04:12:39;35.05;;;16.88;;
5014;SDS011;2526;51.060;4.228;2022-11-20T04:15:04;29.10;;;18.15;;
5014;SDS011;2526;51.060;4.228;2022-11-20T04:17:30;29.33;;;16.17;;
5014;SDS011;2526;51.060;4.228;2022-11-20T04:19:55;33.75;;;18.77;;
5014;SDS011;2526;51.060;4.228;2022-11-20T04:22:21;32.45;;;19.15;;
5014;SDS011;2526;51.060;4.228;2022-11-20T04:24:46;28.60;;;16.35;;
5014;SDS011;2526;51.060;4.228;2022-11-20T04:27:12;28.92;;;17.90;;
5014;SDS011;2526;51.060;4.228;2022-11-20T04:29:37;24.88;;;16.38;;
5014;SDS011;2526;51.060;4.228;2022-11-20T04:32:02;27.25;;;17.25;;
5014;SDS011;2526;51.060;4.228;2022-11-20T04:34:28;36.38;;;17.13;;
5014;SDS011;2526;51.060;4.228;2022-11-20T04:36:53;25.88;;;16.00;;
5014;SDS011;2526;51.060;4.228;2022-11-20T04:39:19;31.70;;;19.55;;
5014;SDS011;2526;51.060;4.228;2022-11-20T04:41:44;30.55;;;19.20;;
5014;SDS011;2526;51.060;4.228;2022-11-20T04:44:09;30.70;;;18.52;;
5014;SDS011;2526;51.060;4.228;2022-11-20T04:46:39;29.90;;;19.95;;
5014;SDS011;2526;51.060;4.228;2022-11-20T04:49:05;31.27;;;18.63;;
5014;SDS011;2526;51.060;4.228;2022-11-20T04:51:31;33.10;;;18.75;;
5014;SDS011;2526;51.060;4.228;2022-11-20T04:53:56;29.38;;;16.05;;
5014;SDS011;2526;51.060;4.228;2022-11-20T04:56:22;31.48;;;19.10;;
5014;SDS011;2526;51.060;4.228;2022-11-20T04:58:47;29.63;;;19.48;;
5014;SDS011;2526;51.060;4.228;2022-11-20T05:01:14;35.17;;;18.58;;
5014;SDS011;2526;51.060;4.228;2022-11-20T05:03:40;31.25;;;16.50;;
5014;SDS011;2526;51.060;4.228;2022-11-20T05:06:06;30.08;;;18.83;;
5014;SDS011;2526;51.060;4.228;2022-11-20T05:08:32;31.02;;;18.30;;
5014;SDS011;2526;51.060;4.228;2022-11-20T05:11:04;26.17;;;15.82;;
5014;SDS011;2526;51.060;4.228;2022-11-20T05:13:30;30.58;;;19.35;;
5014;SDS011;2526;51.060;4.228;2022-11-20T05:16:00;41.30;;;21.83;;
5014;SDS011;2526;51.060;4.228;2022-11-20T05:18:26;35.78;;;18.48;;
5014;SDS011;2526;51.060;4.228;2022-11-20T05:20:54;31.27;;;18.25;;
5014;SDS011;2526;51.060;4.228;2022-11-20T05:23:20;34.00;;;18.90;;
5014;SDS011;2526;51.060;4.228;2022-11-20T05:25:45;34.70;;;19.25;;
5014;SDS011;2526;51.060;4.228;2022-11-20T05:28:10;27.63;;;17.55;;
5014;SDS011;2526;51.060;4.228;2022-11-20T05:30:36;34.00;;;21.25;;
5014;SDS011;2526;51.060;4.228;2022-11-20T05:33:01;26.52;;;18.58;;
5014;SDS011;2526;51.060;4.228;2022-11-20T05:35:27;32.10;;;18.48;;
5014;SDS011;2526;51.060;4.228;2022-11-20T05:37:52;27.95;;;16.30;;
5014;SDS011;2526;51.060;4.228;2022-11-20T05:40:17;29.50;;;16.58;;
5014;SDS011;2526;51.060;4.228;2022-11-20T05:42:43;38.47;;;19.85;;
5014;SDS011;2526;51.060;4.228;2022-11-20T05:45:09;35.20;;;17.85;;
5014;SDS011;2526;51.060;4.228;2022-11-20T05:47:34;39.75;;;20.15;;
5014;SDS011;2526;51.060;4.228;2022-11-20T05:50:00;29.55;;;18.35;;
5014;SDS011;2526;51.060;4.228;2022-11-20T05:52:29;24.63;;;16.77;;
5014;SDS011;2526;51.060;4.228;2022-11-20T05:54:54;33.90;;;19.67;;
5014;SDS011;2526;51.060;4.228;2022-11-20T05:57:20;37.90;;;19.27;;
5014;SDS011;2526;51.060;4.228;2022-11-20T05:59:45;33.58;;;22.58;;
5014;SDS011;2526;51.060;4.228;2022-11-20T06:02:11;32.35;;;19.10;;
5014;SDS011;2526;51.060;4.228;2022-11-20T06:04:36;28.35;;;17.42;;
5014;SDS011;2526;51.060;4.228;2022-11-20T06:07:02;35.08;;;20.83;;
5014;SDS011;2526;51.060;4.228;2022-11-20T06:09:27;30.10;;;18.83;;
5014;SDS011;2526;51.060;4.228;2022-11-20T06:11:52;24.75;;;18.65;;
5014;SDS011;2526;51.060;4.228;2022-11-20T06:14:18;32.70;;;19.38;;
5014;SDS011;2526;51.060;4.228;2022-11-20T06:16:43;30.13;;;19.75;;
5014;SDS011;2526;51.060;4.228;2022-11-20T06:19:09;31.88;;;19.05;;
5014;SDS011;2526;51.060;4.228;2022-11-20T06:21:34;30.45;;;18.77;;
5014;SDS011;2526;51.060;4.228;2022-11-20T06:24:00;34.53;;;18.25;;
5014;SDS011;2526;51.060;4.228;2022-11-20T06:26:26;33.03;;;19.23;;
5014;SDS011;2526;51.060;4.228;2022-11-20T06:28:52;36.53;;;17.52;;
5014;SDS011;2526;51.060;4.228;2022-11-20T06:31:19;38.53;;;19.65;;
5014;SDS011;2526;51.060;4.228;2022-11-20T06:33:45;31.63;;;19.30;;
5014;SDS011;2526;51.060;4.228;2022-11-20T06:36:11;27.95;;;17.60;;
5014;SDS011;2526;51.060;4.228;2022-11-20T06:38:37;28.65;;;17.00;;
5014;SDS011;2526;51.060;4.228;2022-11-20T06:41:04;31.85;;;17.50;;
5014;SDS011;2526;51.060;4.228;2022-11-20T06:43:29;31.58;;;18.38;;
5014;SDS011;2526;51.060;4.228;2022-11-20T06:45:55;25.88;;;17.30;;
5014;SDS011;2526;51.060;4.228;2022-11-20T06:48:21;41.72;;;21.73;;
5014;SDS011;2526;51.060;4.228;2022-11-20T06:50:47;31.70;;;17.98;;
5014;SDS011;2526;51.060;4.228;2022-11-20T06:53:12;31.70;;;20.52;;
5014;SDS011;2526;51.060;4.228;2022-11-20T06:55:41;39.72;;;22.52;;
5014;SDS011;2526;51.060;4.228;2022-11-20T06:58:07;36.40;;;19.27;;
5014;SDS011;2526;51.060;4.228;2022-11-20T07:00:32;35.75;;;20.77;;
5014;SDS011;2526;51.060;4.228;2022-11-20T07:02:57;40.05;;;22.20;;
5014;SDS011;2526;51.060;4.228;2022-11-20T07:05:23;34.88;;;17.90;;
5014;SDS011;2526;51.060;4.228;2022-11-20T07:07:48;34.83;;;19.02;;
5014;SDS011;2526;51.060;4.228;2022-11-20T07:10:14;38.63;;;20.25;;
5014;SDS011;2526;51.060;4.228;2022-11-20T07:12:39;38.10;;;22.02;;
5014;SDS011;2526;51.060;4.228;2022-11-20T07:15:05;41.30;;;22.00;;
5014;SDS011;2526;51.060;4.228;2022-11-20T07:17:30;43.53;;;22.23;;
5014;SDS011;2526;51.060;4.228;2022-11-20T07:19:56;44.28;;;20.50;;
5014;SDS011;2526;51.060;4.228;2022-11-20T07:22:21;47.70;;;21.83;;
5014;SDS011;2526;51.060;4.228;2022-11-20T07:24:47;34.95;;;21.17;;
5014;SDS011;2526;51.060;4.228;2022-11-20T07:27:13;43.50;;;23.33;;
5014;SDS011;2526;51.060;4.228;2022-11-20T07:29:38;57.17;;;23.05;;
5014;SDS011;2526;51.060;4.228;2022-11-20T07:32:04;40.30;;;21.23;;
5014;SDS011;2526;51.060;4.228;2022-11-20T07:34:30;44.50;;;20.77;;
5014;SDS011;2526;51.060;4.228;2022-11-20T07:36:55;46.35;;;20.17;;
5014;SDS011;2526;51.060;4.228;2022-11-20T07:39:21;38.03;;;22.00;;
5014;SDS011;2526;51.060;4.228;2022-11-20T07:41:46;50.30;;;23.13;;
5014;SDS011;2526;51.060;4.228;2022-11-20T07:44:11;57.05;;;25.20;;
5014;SDS011;2526;51.060;4.228;2022-11-20T07:46:37;46.92;;;24.98;;
5014;SDS011;2526;51.060;4.228;2022-11-20T07:49:03;41.05;;;21.88;;
5014;SDS011;2526;51.060;4.228;2022-11-20T07:51:28;41.20;;;21.58;;
5014;SDS011;2526;51.060;4.228;2022-11-20T07:53:54;36.85;;;18.77;;
5014;SDS011;2526;51.060;4.228;2022-11-20T07:56:19;47.22;;;23.60;;
5014;SDS011;2526;51.060;4.228;2022-11-20T07:58:45;49.13;;;22.85;;
5014;SDS011;2526;51.060;4.228;2022-11-20T08:01:21;44.30;;;24.42;;
5014;SDS011;2526;51.060;4.228;2022-11-20T08:03:47;52.00;;;24.10;;
5014;SDS011;2526;51.060;4.228;2022-11-20T08:06:13;53.72;;;23.77;;
5014;SDS011;2526;51.060;4.228;2022-11-20T08:08:39;34.63;;;20.23;;
5014;SDS011;2526;51.060;4.228;2022-11-20T08:11:06;46.30;;;20.63;;
5014;SDS011;2526;51.060;4.228;2022-11-20T08:13:50;38.45;;;18.67;;
5014;SDS011;2526;51.060;4.228;2022-11-20T08:16:34;49.05;;;23.13;;
5014;SDS011;2526;51.060;4.228;2022-11-20T08:18:59;43.90;;;24.15;;
5014;SDS011;2526;51.060;4.228;2022-11-20T08:21:25;54.58;;;28.00;;
5014;SDS011;2526;51.060;4.228;2022-11-20T08:23:50;45.75;;;23.52;;
5014;SDS011;2526;51.060;4.228;2022-11-20T08:26:16;39.38;;;18.52;;
5014;SDS011;2526;51.060;4.228;2022-11-20T08:28:41;37.78;;;20.70;;
5014;SDS011;2526;51.060;4.228;2022-11-20T08:31:06;44.20;;;19.92;;
5014;SDS011;2526;51.060;4.228;2022-11-20T08:33:32;48.00;;;25.30;;
5014;SDS011;2526;51.060;4.228;2022-11-20T08:36:06;40.65;;;21.05;;
5014;SDS011;2526;51.060;4.228;2022-11-20T08:38:32;34.92;;;20.83;;
5014;SDS011;2526;51.060;4.228;2022-11-20T08:40:58;47.90;;;24.73;;
5014;SDS011;2526;51.060;4.228;2022-11-20T08:43:42;40.63;;;22.42;;
5014;SDS011;2526;51.060;4.228;2022-11-20T08:46:07;41.17;;;21.10;;
5014;SDS011;2526;51.060;4.228;2022-11-20T08:48:33;54.42;;;21.80;;
5014;SDS011;2526;51.060;4.228;2022-11-20T08:50:58;46.83;;;22.75;;
5014;SDS011;2526;51.060;4.228;2022-11-20T08:53:24;32.88;;;21.13;;
5014;SDS011;2526;51.060;4.228;2022-11-20T08:55:50;39.67;;;22.63;;
5014;SDS011;2526;51.060;4.228;2022-11-20T08:58:15;36.05;;;20.80;;
5014;SDS011;2526;51.060;4.228;2022-11-20T09:00:41;39.75;;;21.05;;
5014;SDS011;2526;51.060;4.228;2022-11-20T09:03:06;34.10;;;21.15;;
5014;SDS011;2526;51.060;4.228;2022-11-20T09:05:31;39.28;;;21.27;;
5014;SDS011;2526;51.060;4.228;2022-11-20T09:07:57;33.05;;;19.45;;
5014;SDS011;2526;51.060;4.228;2022-11-20T09:10:22;43.53;;;21.15;;
5014;SDS011;2526;51.060;4.228;2022-11-20T09:12:48;35.63;;;19.90;;
5014;SDS011;2526;51.060;4.228;2022-11-20T09:15:14;42.72;;;21.08;;
5014;SDS011;2526;51.060;4.228;2022-11-20T09:17:39;40.92;;;19.85;;
5014;SDS011;2526;51.060;4.228;2022-11-20T09:20:05;43.70;;;21.98;;
5014;SDS011;2526;51.060;4.228;2022-11-20T09:22:30;43.28;;;22.00;;
5014;SDS011;2526;51.060;4.228;2022-11-20T09:24:55;40.80;;;20.52;;
5014;SDS011;2526;51.060;4.228;2022-11-20T09:27:21;37.38;;;21.67;;
5014;SDS011;2526;51.060;4.228;2022-11-20T09:29:46;42.90;;;21.55;;
5014;SDS011;2526;51.060;4.228;2022-11-20T09:32:12;53.97;;;25.25;;
5014;SDS011;2526;51.060;4.228;2022-11-20T09:34:37;51.80;;;25.80;;
5014;SDS011;2526;51.060;4.228;2022-11-20T09:37:03;40.38;;;21.83;;
5014;SDS011;2526;51.060;4.228;2022-11-20T09:39:28;31.77;;;19.38;;
5014;SDS011;2526;51.060;4.228;2022-11-20T09:42:05;36.90;;;17.45;;
5014;SDS011;2526;51.060;4.228;2022-11-20T09:54:26;35.00;;;19.63;;
5014;SDS011;2526;51.060;4.228;2022-11-20T09:56:59;34.05;;;19.20;;
5014;SDS011;2526;51.060;4.228;2022-11-20T10:01:57;29.92;;;18.80;;
5014;SDS011;2526;51.060;4.228;2022-11-20T10:04:23;34.55;;;18.40;;
5014;SDS011;2526;51.060;4.228;2022-11-20T10:12:07;26.38;;;16.45;;
5014;SDS011;2526;51.060;4.228;2022-11-20T10:30:06;39.58;;;18.30;;
5014;SDS011;2526;51.060;4.228;2022-11-20T10:32:36;45.35;;;22.65;;
5014;SDS011;2526;51.060;4.228;2022-11-20T10:37:41;45.05;;;22.50;;
5014;SDS011;2526;51.060;4.228;2022-11-20T10:40:19;36.05;;;20.35;;
5014;SDS011;2526;51.060;4.228;2022-11-20T10:47:42;28.33;;;14.77;;
5014;SDS011;2526;51.060;4.228;2022-11-20T10:50:09;29.30;;;16.95;;
5014;SDS011;2526;51.060;4.228;2022-11-20T11:00:27;22.27;;;11.95;;
5014;SDS011;2526;51.060;4.228;2022-11-20T11:02:52;25.50;;;10.77;;
5014;SDS011;2526;51.060;4.228;2022-11-20T11:07:56;24.08;;;12.20;;
5014;SDS011;2526;51.060;4.228;2022-11-20T11:10:24;23.83;;;11.40;;
5014;SDS011;2526;51.060;4.228;2022-11-20T11:12:51;23.92;;;12.48;;
5014;SDS011;2526;51.060;4.228;2022-11-20T11:15:27;15.55;;;10.85;;
5014;SDS011;2526;51.060;4.228;2022-11-20T11:17:52;15.75;;;10.30;;
5014;SDS011;2526;51.060;4.228;2022-11-20T11:20:19;17.42;;;9.73;;
5014;SDS011;2526;51.060;4.228;2022-11-20T11:22:46;14.32;;;9.02;;
5014;SDS011;2526;51.060;4.228;2022-11-20T11:25:22;12.43;;;6.75;;
5014;SDS011;2526;51.060;4.228;2022-11-20T11:27:48;19.75;;;6.03;;
5014;SDS011;2526;51.060;4.228;2022-11-20T11:30:15;7.10;;;4.97;;
5014;SDS011;2526;51.060;4.228;2022-11-20T11:32:41;13.23;;;4.78;;
5014;SDS011;2526;51.060;4.228;2022-11-20T11:35:11;12.02;;;3.70;;
5014;SDS011;2526;51.060;4.228;2022-11-20T11:37:43;14.38;;;5.05;;
5014;SDS011;2526;51.060;4.228;2022-11-20T11:40:10;7.80;;;3.45;;
5014;SDS011;2526;51.060;4.228;2022-11-20T11:42:40;5.15;;;3.25;;
5014;SDS011;2526;51.060;4.228;2022-11-20T11:45:07;4.18;;;2.92;;
5014;SDS011;2526;51.060;4.228;2022-11-20T11:47:35;5.22;;;2.40;;
5014;SDS011;2526;51.060;4.228;2022-11-20T11:52:33;11.77;;;5.43;;
5014;SDS011;2526;51.060;4.228;2022-11-20T11:55:02;4.15;;;1.77;;
5014;SDS011;2526;51.060;4.228;2022-11-20T12:00:09;8.48;;;2.83;;
5014;SDS011;2526;51.060;4.228;2022-11-20T12:13:11;8.52;;;1.77;;
5014;SDS011;2526;51.060;4.228;2022-11-20T12:15:40;2.67;;;1.60;;
5014;SDS011;2526;51.060;4.228;2022-11-20T12:18:13;5.18;;;2.08;;
5014;SDS011;2526;51.060;4.228;2022-11-20T12:20:41;9.87;;;1.57;;
5014;SDS011;2526;51.060;4.228;2022-11-20T12:23:16;8.95;;;1.50;;
5014;SDS011;2526;51.060;4.228;2022-11-20T12:25:43;1.80;;;1.38;;
5014;SDS011;2526;51.060;4.228;2022-11-20T12:30:47;2.22;;;1.17;;
5014;SDS011;2526;51.060;4.228;2022-11-20T12:36:11;8.45;;;1.65;;
5014;SDS011;2526;51.060;4.228;2022-11-20T12:47:05;4.35;;;2.63;;
5014;SDS011;2526;51.060;4.228;2022-11-20T12:49:37;2.78;;;1.60;;
5014;SDS011;2526;51.060;4.228;2022-11-20T12:52:16;6.70;;;2.83;;
5014;SDS011;2526;51.060;4.228;2022-11-20T12:54:54;6.03;;;2.38;;
5014;SDS011;2526;51.060;4.228;2022-11-20T13:07:43;2.65;;;1.83;;
5014;SDS011;2526;51.060;4.228;2022-11-20T13:12:59;2.90;;;2.30;;
5014;SDS011;2526;51.060;4.228;2022-11-20T13:15:34;4.78;;;2.15;;
5014;SDS011;2526;51.060;4.228;2022-11-20T13:18:01;3.30;;;2.58;;
5014;SDS011;2526;51.060;4.228;2022-11-20T13:20:28;7.60;;;2.35;;
5014;SDS011;2526;51.060;4.228;2022-11-20T13:22:55;3.42;;;2.03;;
5014;SDS011;2526;51.060;4.228;2022-11-20T13:25:43;9.70;;;3.33;;
5014;SDS011;2526;51.060;4.228;2022-11-20T13:30:36;7.10;;;3.25;;
5014;SDS011;2526;51.060;4.228;2022-11-20T13:33:09;10.55;;;3.50;;
5014;SDS011;2526;51.060;4.228;2022-11-20T13:36:19;13.20;;;3.80;;
5014;SDS011;2526;51.060;4.228;2022-11-20T13:38:52;7.85;;;2.72;;
5014;SDS011;2526;51.060;4.228;2022-11-20T13:41:28;10.88;;;2.70;;
5014;SDS011;2526;51.060;4.228;2022-11-20T13:44:22;4.07;;;2.10;;
5014;SDS011;2526;51.060;4.228;2022-11-20T13:46:45;6.07;;;2.88;;
5014;SDS011;2526;51.060;4.228;2022-11-20T13:49:53;7.22;;;2.97;;
5014;SDS011;2526;51.060;4.228;2022-11-20T13:52:26;3.55;;;2.22;;
5014;SDS011;2526;51.060;4.228;2022-11-20T13:54:58;4.82;;;2.17;;
5014;SDS011;2526;51.060;4.228;2022-11-20T13:57:34;4.05;;;2.67;;
5014;SDS011;2526;51.060;4.228;2022-11-20T14:00:13;5.95;;;2.50;;
5014;SDS011;2526;51.060;4.228;2022-11-20T14:02:39;2.53;;;1.67;;
5014;SDS011;2526;51.060;4.228;2022-11-20T14:05:05;4.82;;;1.65;;
5014;SDS011;2526;51.060;4.228;2022-11-20T14:07:32;4.93;;;2.95;;
5014;SDS011;2526;51.060;4.228;2022-11-20T14:10:00;2.75;;;1.80;;
5014;SDS011;2526;51.060;4.228;2022-11-20T14:12:29;6.03;;;1.70;;
5014;SDS011;2526;51.060;4.228;2022-11-20T14:14:55;2.92;;;1.95;;
5014;SDS011;2526;51.060;4.228;2022-11-20T14:17:22;1.30;;;1.17;;
5014;SDS011;2526;51.060;4.228;2022-11-20T14:19:50;1.33;;;1.15;;
5014;SDS011;2526;51.060;4.228;2022-11-20T14:22:23;2.95;;;1.48;;
5014;SDS011;2526;51.060;4.228;2022-11-20T14:25:00;1.40;;;1.30;;
5014;SDS011;2526;51.060;4.228;2022-11-20T14:27:25;1.88;;;0.95;;
5014;SDS011;2526;51.060;4.228;2022-11-20T14:29:51;3.15;;;1.40;;
5014;SDS011;2526;51.060;4.228;2022-11-20T14:32:20;1.88;;;1.25;;
5014;SDS011;2526;51.060;4.228;2022-11-20T14:34:47;2.60;;;1.27;;
5014;SDS011;2526;51.060;4.228;2022-11-20T14:37:17;3.08;;;1.58;;
5014;SDS011;2526;51.060;4.228;2022-11-20T14:39:53;2.65;;;1.15;;
5014;SDS011;2526;51.060;4.228;2022-11-20T14:42:20;2.50;;;1.17;;
5014;SDS011;2526;51.060;4.228;2022-11-20T14:44:46;2.20;;;1.30;;
5014;SDS011;2526;51.060;4.228;2022-11-20T14:47:13;2.45;;;1.25;;
5014;SDS011;2526;51.060;4.228;2022-11-20T14:49:40;3.88;;;1.60;;
5014;SDS011;2526;51.060;4.228;2022-11-20T14:52:19;1.60;;;1.50;;
5014;SDS011;2526;51.060;4.228;2022-11-20T14:57:19;3.88;;;1.85;;
5014;SDS011;2526;51.060;4.228;2022-11-20T14:59:45;2.05;;;1.83;;
5014;SDS011;2526;51.060;4.228;2022-11-20T15:02:11;1.90;;;1.50;;
5014;SDS011;2526;51.060;4.228;2022-11-20T15:07:11;4.00;;;2.20;;
5014;SDS011;2526;51.060;4.228;2022-11-20T15:09:36;4.22;;;2.10;;
5014;SDS011;2526;51.060;4.228;2022-11-20T15:12:03;5.10;;;2.72;;
5014;SDS011;2526;51.060;4.228;2022-11-20T15:14:29;3.25;;;1.58;;
5014;SDS011;2526;51.060;4.228;2022-11-20T15:16:55;6.25;;;3.40;;
5014;SDS011;2526;51.060;4.228;2022-11-20T15:19:24;5.30;;;3.40;;
5014;SDS011;2526;51.060;4.228;2022-11-20T15:21:50;5.28;;;3.00;;
5014;SDS011;2526;51.060;4.228;2022-11-20T15:24:16;4.10;;;2.75;;
5014;SDS011;2526;51.060;4.228;2022-11-20T15:26:42;2.65;;;2.20;;
5014;SDS011;2526;51.060;4.228;2022-11-20T15:29:11;4.05;;;3.35;;
5014;SDS011;2526;51.060;4.228;2022-11-20T15:31:37;5.78;;;2.35;;
5014;SDS011;2526;51.060;4.228;2022-11-20T15:34:10;4.50;;;2.15;;
5014;SDS011;2526;51.060;4.228;2022-11-20T15:36:36;5.50;;;3.22;;
5014;SDS011;2526;51.060;4.228;2022-11-20T15:39:01;4.38;;;3.38;;
5014;SDS011;2526;51.060;4.228;2022-11-20T15:41:27;6.95;;;2.95;;
5014;SDS011;2526;51.060;4.228;2022-11-20T15:43:53;4.55;;;2.67;;
5014;SDS011;2526;51.060;4.228;2022-11-20T15:46:20;10.65;;;3.90;;
5014;SDS011;2526;51.060;4.228;2022-11-20T15:48:55;3.78;;;2.33;;
5014;SDS011;2526;51.060;4.228;2022-11-20T15:51:24;3.45;;;2.00;;
5014;SDS011;2526;51.060;4.228;2022-11-20T15:53:51;2.30;;;1.90;;
5014;SDS011;2526;51.060;4.228;2022-11-20T15:56:16;5.85;;;3.53;;
5014;SDS011;2526;51.060;4.228;2022-11-20T15:58:42;6.35;;;3.20;;
5014;SDS011;2526;51.060;4.228;2022-11-20T16:01:11;3.45;;;2.33;;
5014;SDS011;2526;51.060;4.228;2022-11-20T16:03:37;3.65;;;2.40;;
5014;SDS011;2526;51.060;4.228;2022-11-20T16:06:02;4.00;;;2.97;;
5014;SDS011;2526;51.060;4.228;2022-11-20T16:08:27;9.13;;;1.73;;
5014;SDS011;2526;51.060;4.228;2022-11-20T16:10:53;7.60;;;2.53;;
5014;SDS011;2526;51.060;4.228;2022-11-20T16:13:18;5.93;;;2.28;;
5014;SDS011;2526;51.060;4.228;2022-11-20T16:16:04;14.32;;;2.22;;
5014;SDS011;2526;51.060;4.228;2022-11-20T16:18:30;9.18;;;1.40;;
5014;SDS011;2526;51.060;4.228;2022-11-20T16:20:55;8.02;;;1.75;;
5014;SDS011;2526;51.060;4.228;2022-11-20T16:23:21;3.35;;;2.20;;
5014;SDS011;2526;51.060;4.228;2022-11-20T16:25:47;15.38;;;2.38;;
5014;SDS011;2526;51.060;4.228;2022-11-20T16:28:13;29.77;;;3.30;;
5014;SDS011;2526;51.060;4.228;2022-11-20T16:30:38;8.82;;;2.45;;
5014;SDS011;2526;51.060;4.228;2022-11-20T16:33:04;2.92;;;1.75;;
5014;SDS011;2526;51.060;4.228;2022-11-20T16:35:34;2.80;;;2.05;;
5014;SDS011;2526;51.060;4.228;2022-11-20T16:37:59;14.38;;;2.25;;
5014;SDS011;2526;51.060;4.228;2022-11-20T16:40:25;12.55;;;1.95;;
5014;SDS011;2526;51.060;4.228;2022-11-20T16:42:50;3.33;;;1.95;;
5014;SDS011;2526;51.060;4.228;2022-11-20T16:45:16;8.07;;;2.33;;